Time;durP1;ratioP1;P1;durP2;ratioP2;P2;SDS_P1;SDS_P2;PMS_P1;PMS_P2;Temp;Humidity;BMP_temperature;BMP_pressure;BME280_temperature;BME280_humidity;BME280_pressure;Samples;Min_cycle;Max_cycle;Signal;HPM_P1;HPM_P2
2021/09/16 00:01:54;;;;;;;23.20;17.20;;;19.90;99.90;;;;;;5075785;28;20462;-71
2021/09/16 00:04:21;;;;;;;19.97;17.87;;;19.90;99.90;;;;;;5075809;28;20536;-71
2021/09/16 00:06:47;;;;;;;19.73;17.63;;;19.90;99.90;;;;;;5075568;28;20466;-71
2021/09/16 00:09:14;;;;;;;20.03;17.93;;;19.90;99.90;;;;;;5075598;28;20488;-71
2021/09/16 00:11:42;;;;;;;18.23;16.40;;;19.90;99.90;;;;;;5075506;28;20953;-71
2021/09/16 00:14:09;;;;;;;17.13;15.33;;;19.80;99.90;;;;;;5075869;28;20464;-71
2021/09/16 00:16:38;;;;;;;16.97;14.97;;;19.80;99.90;;;;;;5074961;28;20504;-71
2021/09/16 00:19:05;;;;;;;17.27;14.67;;;19.70;99.90;;;;;;5075500;28;20449;-71
2021/09/16 00:21:32;;;;;;;17.63;15.93;;;19.60;99.90;;;;;;5075489;28;20459;-71
2021/09/16 00:23:58;;;;;;;20.07;16.30;;;19.60;99.90;;;;;;5075310;28;20454;-71
2021/09/16 00:26:25;;;;;;;20.10;16.53;;;19.50;99.90;;;;;;5074941;28;20960;-71
2021/09/16 00:28:53;;;;;;;18.53;15.80;;;19.50;99.90;;;;;;5075252;28;20581;-71
2021/09/16 00:31:20;;;;;;;18.40;16.03;;;19.50;99.90;;;;;;5074996;28;20464;-71
2021/09/16 00:33:49;;;;;;;17.93;16.13;;;19.50;99.90;;;;;;5075013;28;20461;-71
2021/09/16 00:36:16;;;;;;;22.60;17.20;;;19.40;99.90;;;;;;5075281;28;20458;-69
2021/09/16 00:38:43;;;;;;;19.77;17.60;;;19.40;99.90;;;;;;5075019;28;20482;-70
2021/09/16 00:41:10;;;;;;;20.83;16.43;;;19.40;99.90;;;;;;5074986;28;20458;-70
2021/09/16 00:43:36;;;;;;;19.63;16.20;;;19.40;99.90;;;;;;5075017;28;20742;-71
2021/09/16 00:46:06;;;;;;;19.50;16.87;;;19.30;99.90;;;;;;5075088;28;20464;-72
2021/09/16 00:48:33;;;;;;;20.30;16.90;;;19.30;99.90;;;;;;5074772;28;20456;-70
2021/09/16 00:51:00;;;;;;;24.17;16.37;;;19.30;99.90;;;;;;5074510;28;20447;-69
2021/09/16 00:53:28;;;;;;;18.87;16.60;;;19.30;99.90;;;;;;5075151;28;20469;-70
2021/09/16 00:55:57;;;;;;;18.20;16.30;;;19.30;99.90;;;;;;5074417;28;20468;-70
2021/09/16 00:58:25;;;;;;;22.03;16.80;;;19.20;99.90;;;;;;5074895;28;20778;-70
2021/09/16 01:00:55;;;;;;;20.15;17.08;;;19.30;99.90;;;;;;5074914;28;20466;-71
2021/09/16 01:03:23;;;;;;;19.43;16.57;;;19.30;99.90;;;;;;5074797;28;20306;-70
2021/09/16 01:05:53;;;;;;;21.83;16.97;;;19.30;99.90;;;;;;5075050;28;20461;-70
2021/09/16 01:08:20;;;;;;;18.90;16.87;;;19.30;99.90;;;;;;5074356;28;20811;-72
2021/09/16 01:10:50;;;;;;;18.37;16.40;;;19.30;99.90;;;;;;5074451;28;20512;-70
2021/09/16 01:13:17;;;;;;;19.40;17.20;;;19.30;99.90;;;;;;5074596;28;20442;-69
2021/09/16 01:15:48;;;;;;;18.77;16.67;;;19.30;99.90;;;;;;5074449;28;20486;-71
2021/09/16 01:18:15;;;;;;;19.67;16.70;;;19.30;99.90;;;;;;5075694;28;20439;-70
2021/09/16 01:20:43;;;;;;;18.97;16.00;;;19.30;99.90;;;;;;5075142;28;20465;-71
2021/09/16 01:23:11;;;;;;;18.03;16.23;;;19.30;99.90;;;;;;5074789;28;20466;-71
2021/09/16 01:25:39;;;;;;;26.90;18.13;;;19.30;99.90;;;;;;5074976;28;20463;-70
2021/09/16 01:28:08;;;;;;;17.20;15.50;;;19.30;99.90;;;;;;5074416;28;20475;-71
2021/09/16 01:30:35;;;;;;;20.80;17.40;;;19.30;99.90;;;;;;5074455;28;20484;-71
2021/09/16 01:33:06;;;;;;;17.77;15.97;;;19.20;99.90;;;;;;5075077;28;20460;-71
2021/09/16 01:35:35;;;;;;;26.90;16.80;;;19.20;99.90;;;;;;5074243;28;20440;-70
2021/09/16 01:38:02;;;;;;;16.63;14.90;;;19.20;99.90;;;;;;5074615;28;20469;-70
2021/09/16 01:40:30;;;;;;;19.63;16.33;;;19.20;99.90;;;;;;5074412;28;20469;-70
2021/09/16 01:42:57;;;;;;;19.33;15.07;;;19.20;99.90;;;;;;5074716;28;20471;-70
2021/09/16 01:45:26;;;;;;;16.15;14.48;;;19.20;99.90;;;;;;5074306;28;20450;-70
2021/09/16 01:47:56;;;;;;;15.43;13.93;;;19.20;99.90;;;;;;5074362;28;20539;-70
2021/09/16 01:50:27;;;;;;;17.17;14.77;;;19.20;99.90;;;;;;5073940;28;20939;-71
2021/09/16 01:52:55;;;;;;;15.30;13.70;;;19.10;99.90;;;;;;5073693;28;20502;-71
2021/09/16 01:55:21;;;;;;;18.63;13.00;;;19.10;99.90;;;;;;5074177;28;20520;-70
2021/09/16 01:57:50;;;;;;;16.30;13.17;;;19.00;99.90;;;;;;5074115;28;20473;-70
2021/09/16 02:00:18;;;;;;;18.13;12.30;;;19.00;99.90;;;;;;5074401;28;20909;-70
2021/09/16 02:02:45;;;;;;;14.63;12.30;;;19.00;99.90;;;;;;5077972;28;20503;-70
2021/09/16 02:05:12;;;;;;;13.60;12.20;;;18.90;99.90;;;;;;5078336;28;20780;-70
2021/09/16 02:07:39;;;;;;;14.33;12.83;;;18.90;99.90;;;;;;5078357;28;20920;-71
2021/09/16 02:10:07;;;;;;;14.80;13.30;;;18.90;99.90;;;;;;5077708;28;20560;-70
2021/09/16 02:12:34;;;;;;;13.57;12.07;;;18.90;99.90;;;;;;5077740;28;20456;-70
2021/09/16 02:15:02;;;;;;;15.63;14.13;;;18.90;99.90;;;;;;5077578;28;20487;-70
2021/09/16 02:17:29;;;;;;;18.03;14.03;;;18.90;99.90;;;;;;5077776;28;20460;-70
2021/09/16 02:19:55;;;;;;;16.77;14.13;;;18.90;99.90;;;;;;5078228;28;20463;-70
2021/09/16 02:22:22;;;;;;;16.47;14.53;;;18.80;99.90;;;;;;5077798;28;20788;-70
2021/09/16 02:24:50;;;;;;;15.90;14.20;;;18.80;99.90;;;;;;5077857;28;20461;-71
2021/09/16 02:27:16;;;;;;;17.33;14.37;;;18.80;99.90;;;;;;5077703;28;20463;-71
2021/09/16 02:29:43;;;;;;;15.27;13.67;;;18.80;99.90;;;;;;5078183;28;20561;-71
2021/09/16 02:32:11;;;;;;;17.13;14.77;;;18.80;99.90;;;;;;5077456;28;20468;-71
2021/09/16 02:34:40;;;;;;;17.00;14.30;;;18.80;99.90;;;;;;5077866;28;20464;-71
2021/09/16 02:37:06;;;;;;;19.00;14.53;;;18.80;99.90;;;;;;5077327;28;20512;-71
2021/09/16 02:39:33;;;;;;;17.50;15.57;;;18.80;99.90;;;;;;5077563;28;20499;-71
2021/09/16 02:42:00;;;;;;;17.97;15.77;;;18.70;99.90;;;;;;5077449;28;20463;-71
2021/09/16 02:44:29;;;;;;;19.17;15.00;;;18.70;99.90;;;;;;5077285;28;20457;-71
2021/09/16 02:46:56;;;;;;;18.33;15.13;;;18.70;99.90;;;;;;5076909;28;20458;-71
2021/09/16 02:49:24;;;;;;;17.40;15.60;;;18.70;99.90;;;;;;5077030;28;20473;-71
2021/09/16 02:51:50;;;;;;;19.60;16.30;;;18.60;99.90;;;;;;5077094;28;20463;-71
2021/09/16 02:54:18;;;;;;;18.10;14.77;;;18.60;99.90;;;;;;5077226;28;20825;-71
2021/09/16 02:56:47;;;;;;;17.90;15.20;;;18.60;99.90;;;;;;5077170;28;20981;-71
2021/09/16 02:59:14;;;;;;;18.30;15.30;;;18.60;99.90;;;;;;5076836;28;20458;-71
2021/09/16 03:01:41;;;;;;;16.73;14.10;;;18.60;99.90;;;;;;5076854;28;20461;-71
2021/09/16 03:04:07;;;;;;;18.07;13.90;;;18.50;99.90;;;;;;5077022;28;20487;-70
2021/09/16 03:06:38;;;;;;;17.13;14.00;;;18.50;99.90;;;;;;5076519;28;20455;-71
2021/09/16 03:09:05;;;;;;;16.10;13.90;;;18.50;99.90;;;;;;5076758;28;20467;-72
2021/09/16 03:11:34;;;;;;;15.60;13.30;;;18.50;99.90;;;;;;5076617;28;20482;-70
2021/09/16 03:14:01;;;;;;;15.43;13.70;;;18.50;99.90;;;;;;5076733;28;20557;-70
2021/09/16 03:16:28;;;;;;;14.80;13.30;;;18.60;99.90;;;;;;5076319;28;20478;-70
2021/09/16 03:18:54;;;;;;;20.97;14.40;;;18.60;99.90;;;;;;5076565;28;20459;-70
2021/09/16 03:21:21;;;;;;;16.83;13.00;;;18.60;99.90;;;;;;5076609;28;20450;-72
2021/09/16 03:23:49;;;;;;;16.23;14.33;;;18.60;99.90;;;;;;5076491;28;20911;-71
2021/09/16 03:26:16;;;;;;;14.13;12.57;;;18.60;99.90;;;;;;5076387;28;20456;-71
2021/09/16 03:28:42;;;;;;;15.77;14.03;;;18.60;99.90;;;;;;5076613;28;20772;-71
2021/09/16 03:31:09;;;;;;;17.63;14.13;;;18.60;99.90;;;;;;5076342;28;20501;-71
2021/09/16 03:33:36;;;;;;;21.77;15.33;;;18.60;99.90;;;;;;5076190;28;20921;-71
2021/09/16 03:36:03;;;;;;;21.00;16.80;;;18.60;99.90;;;;;;5076147;28;20469;-71
2021/09/16 03:38:31;;;;;;;23.47;15.80;;;18.60;99.90;;;;;;5077126;28;20463;-71
2021/09/16 03:41:00;;;;;;;20.70;15.70;;;18.60;99.90;;;;;;5076021;28;20450;-71
2021/09/16 03:43:27;;;;;;;24.20;16.30;;;18.60;99.90;;;;;;5076003;28;20460;-71
2021/09/16 03:45:54;;;;;;;19.47;15.90;;;18.60;99.90;;;;;;5076073;28;20454;-71
2021/09/16 03:48:20;;;;;;;25.73;19.10;;;18.60;99.90;;;;;;5076070;28;20465;-71
2021/09/16 03:50:48;;;;;;;26.00;19.50;;;18.60;99.90;;;;;;5075719;28;20490;-71
2021/09/16 03:53:16;;;;;;;23.25;18.83;;;18.60;99.90;;;;;;5075950;28;20791;-71
2021/09/16 03:55:43;;;;;;;23.63;18.77;;;18.60;99.90;;;;;;5075808;28;20206;-71
2021/09/16 03:58:11;;;;;;;25.30;19.67;;;18.60;99.90;;;;;;5075806;28;20467;-71
2021/09/16 04:00:38;;;;;;;30.50;20.10;;;18.60;99.90;;;;;;5076199;28;20455;-71
2021/09/16 04:03:07;;;;;;;26.33;18.97;;;18.60;99.90;;;;;;5075539;28;20471;-71
2021/09/16 04:05:34;;;;;;;33.17;21.87;;;18.50;99.90;;;;;;5075709;28;20465;-71
2021/09/16 04:08:02;;;;;;;30.80;21.83;;;18.50;99.90;;;;;;5075826;28;20808;-71
2021/09/16 04:10:30;;;;;;;33.93;22.93;;;18.50;99.90;;;;;;5075601;28;20482;-71
2021/09/16 04:12:59;;;;;;;29.33;23.27;;;18.50;99.90;;;;;;5075661;28;20458;-71
2021/09/16 04:15:27;;;;;;;34.07;24.83;;;18.40;99.90;;;;;;5075277;28;20821;-71
2021/09/16 04:17:54;;;;;;;28.83;23.13;;;18.40;99.90;;;;;;5075234;28;20469;-71
2021/09/16 04:20:21;;;;;;;36.80;24.63;;;18.30;99.90;;;;;;5075830;28;20459;-71
2021/09/16 04:22:49;;;;;;;34.87;24.53;;;18.30;99.90;;;;;;5075587;28;20459;-71
2021/09/16 04:25:16;;;;;;;35.90;24.17;;;18.20;99.90;;;;;;5075291;28;20779;-71
2021/09/16 04:27:43;;;;;;;33.57;22.93;;;18.10;99.90;;;;;;5075607;28;20488;-71
2021/09/16 04:30:11;;;;;;;36.13;25.10;;;18.10;99.90;;;;;;5075133;28;20474;-70
2021/09/16 04:32:39;;;;;;;38.20;24.67;;;18.00;99.90;;;;;;5075206;28;20829;-71
2021/09/16 04:35:07;;;;;;;33.27;23.03;;;18.00;99.90;;;;;;5075266;28;20455;-70
2021/09/16 04:37:33;;;;;;;37.47;24.50;;;18.00;99.90;;;;;;5075056;28;20454;-71
2021/09/16 04:40:04;;;;;;;38.93;23.73;;;18.00;99.90;;;;;;5074889;28;20451;-71
2021/09/16 04:42:31;;;;;;;37.50;24.27;;;18.00;99.90;;;;;;5075985;28;20443;-71
2021/09/16 04:44:58;;;;;;;36.77;25.20;;;18.00;99.90;;;;;;5074912;28;20916;-71
2021/09/16 04:47:24;;;;;;;36.10;25.20;;;18.00;99.90;;;;;;5075041;28;20458;-71
2021/09/16 04:49:52;;;;;;;38.17;26.83;;;18.00;99.90;;;;;;5074622;28;20942;-71
2021/09/16 04:52:19;;;;;;;38.07;25.30;;;18.00;99.90;;;;;;5075026;28;20454;-71
2021/09/16 04:54:46;;;;;;;29.77;22.10;;;18.10;99.90;;;;;;5074882;28;20512;-71
2021/09/16 04:57:12;;;;;;;36.93;23.40;;;18.10;99.90;;;;;;5074783;28;20822;-71
2021/09/16 04:59:40;;;;;;;29.90;22.20;;;18.10;99.90;;;;;;5075023;28;20516;-71
2021/09/16 05:02:07;;;;;;;28.77;19.80;;;18.00;99.90;;;;;;5074875;28;20853;-71
2021/09/16 05:04:33;;;;;;;29.20;20.60;;;18.00;99.90;;;;;;5074906;28;20470;-73
2021/09/16 05:07:01;;;;;;;26.03;19.80;;;18.00;99.90;;;;;;5074973;28;20520;-71
2021/09/16 05:09:30;;;;;;;23.90;18.67;;;18.00;99.90;;;;;;5075396;28;20462;-71
2021/09/16 05:11:56;;;;;;;30.90;21.20;;;18.10;99.90;;;;;;5074912;28;20493;-71
2021/09/16 05:14:23;;;;;;;24.63;18.47;;;18.00;99.90;;;;;;5074690;28;20458;-71
2021/09/16 05:16:50;;;;;;;22.90;18.17;;;18.00;99.90;;;;;;5075548;28;20447;-71
2021/09/16 05:19:16;;;;;;;27.20;20.17;;;18.00;99.90;;;;;;5074923;28;20458;-72
2021/09/16 05:21:43;;;;;;;23.13;17.37;;;18.10;99.90;;;;;;5075014;28;20459;-71
2021/09/16 05:24:16;;;;;;;19.70;15.40;;;18.10;99.90;;;;;;5074296;28;20538;-72
2021/09/16 05:26:45;;;;;;;21.13;17.40;;;18.10;99.90;;;;;;5075612;28;21013;-72
2021/09/16 05:29:11;;;;;;;23.63;18.40;;;18.10;99.90;;;;;;5077544;28;20458;-72
2021/09/16 05:31:38;;;;;;;23.63;18.07;;;18.10;99.90;;;;;;5079887;28;20490;-72
2021/09/16 05:34:05;;;;;;;21.37;17.00;;;18.10;99.90;;;;;;5077585;28;20463;-71
2021/09/16 05:36:32;;;;;;;27.53;18.37;;;18.10;99.90;;;;;;5077173;28;20483;-71
2021/09/16 05:39:00;;;;;;;21.63;15.73;;;18.10;99.90;;;;;;5078871;28;20914;-70
2021/09/16 05:41:29;;;;;;;20.87;16.20;;;18.10;99.90;;;;;;5079553;28;20465;-71
2021/09/16 05:43:56;;;;;;;27.77;15.27;;;18.10;99.90;;;;;;5083070;28;20454;-71
2021/09/16 05:46:22;;;;;;;18.73;14.77;;;18.10;99.90;;;;;;5079932;28;20501;-71
2021/09/16 05:48:49;;;;;;;18.10;14.77;;;18.10;99.90;;;;;;5078349;28;20462;-71
2021/09/16 05:51:16;;;;;;;17.00;13.93;;;18.10;99.90;;;;;;5078255;28;20482;-71
2021/09/16 05:53:43;;;;;;;20.00;14.60;;;18.00;99.90;;;;;;5078346;28;20455;-71
2021/09/16 05:56:09;;;;;;;18.93;14.30;;;18.00;99.90;;;;;;5077587;28;20469;-71
2021/09/16 05:58:37;;;;;;;14.83;13.33;;;18.00;99.90;;;;;;5078333;28;20458;-71
2021/09/16 06:01:04;;;;;;;14.47;11.83;;;18.00;99.90;;;;;;5077531;28;20485;-71
2021/09/16 06:03:31;;;;;;;17.90;12.03;;;18.00;99.90;;;;;;5078531;28;20458;-71
2021/09/16 06:05:58;;;;;;;16.50;11.23;;;18.00;99.90;;;;;;5078060;28;20462;-71
2021/09/16 06:08:24;;;;;;;12.27;10.13;;;17.90;99.90;;;;;;5077818;28;20450;-71
2021/09/16 06:10:53;;;;;;;9.70;8.73;;;18.00;99.90;;;;;;5077778;28;20220;-71
2021/09/16 06:13:20;;;;;;;10.30;9.30;;;18.00;99.90;;;;;;5077740;28;20842;-71
2021/09/16 06:15:48;;;;;;;9.70;8.70;;;18.00;99.90;;;;;;5077285;28;20494;-71
2021/09/16 06:18:14;;;;;;;11.20;9.43;;;18.00;99.90;;;;;;5077650;28;20458;-72
2021/09/16 06:20:41;;;;;;;11.20;9.40;;;18.00;99.90;;;;;;5077739;28;20798;-71
2021/09/16 06:23:08;;;;;;;14.10;10.60;;;18.00;99.90;;;;;;5077220;28;20539;-71
2021/09/16 06:25:34;;;;;;;13.23;9.90;;;18.00;99.90;;;;;;5077455;28;20459;-71
2021/09/16 06:28:04;;;;;;;15.57;9.90;;;18.00;99.90;;;;;;5077268;28;20471;-71
2021/09/16 06:30:31;;;;;;;10.80;9.80;;;18.00;99.90;;;;;;5076927;28;20887;-71
2021/09/16 06:32:59;;;;;;;11.63;9.60;;;18.00;99.90;;;;;;5077185;28;20764;-72
2021/09/16 06:35:26;;;;;;;12.00;10.10;;;18.00;99.90;;;;;;5077018;28;20935;-71
2021/09/16 06:37:55;;;;;;;13.57;9.80;;;18.00;99.90;;;;;;5077550;28;20454;-72
2021/09/16 06:40:22;;;;;;;13.07;10.10;;;18.00;99.90;;;;;;5076980;28;20458;-72
2021/09/16 06:42:50;;;;;;;11.43;9.63;;;18.00;99.90;;;;;;5076662;28;20458;-71
2021/09/16 06:45:17;;;;;;;10.93;8.93;;;18.10;99.90;;;;;;5076831;28;20458;-71
2021/09/16 06:47:44;;;;;;;12.90;9.40;;;18.10;99.90;;;;;;5077336;28;20464;-71
2021/09/16 06:50:12;;;;;;;10.50;9.40;;;18.20;99.90;;;;;;5077465;28;20454;-71
2021/09/16 06:52:41;;;;;;;11.07;9.50;;;18.20;99.90;;;;;;5077056;28;20478;-71
2021/09/16 06:55:09;;;;;;;10.23;8.40;;;18.20;99.90;;;;;;5076842;28;20458;-71
2021/09/16 06:57:36;;;;;;;9.37;8.37;;;18.10;99.90;;;;;;5077366;28;20825;-75
2021/09/16 07:00:03;;;;;;;10.20;8.70;;;18.00;99.90;;;;;;5076666;28;20450;-71
2021/09/16 07:02:31;;;;;;;13.30;9.00;;;18.00;99.90;;;;;;5076454;28;20775;-71
2021/09/16 07:04:58;;;;;;;11.10;7.63;;;17.90;99.90;;;;;;5076864;28;20462;-71
2021/09/16 07:07:26;;;;;;;10.13;8.30;;;17.90;99.90;;;;;;5076299;28;20484;-72
2021/09/16 07:09:52;;;;;;;9.90;8.80;;;17.90;99.90;;;;;;5076723;28;20553;-72
2021/09/16 07:12:19;;;;;;;9.30;8.40;;;17.90;99.90;;;;;;5076561;28;20547;-71
2021/09/16 07:14:47;;;;;;;10.50;8.37;;;17.90;99.90;;;;;;5076122;28;20490;-70
2021/09/16 07:17:14;;;;;;;10.13;7.20;;;17.90;99.90;;;;;;5076558;28;20855;-71
2021/09/16 07:19:40;;;;;;;10.20;8.63;;;17.90;99.90;;;;;;5076451;28;20459;-71
2021/09/16 07:22:08;;;;;;;10.30;8.80;;;18.00;99.90;;;;;;5076635;28;20455;-72
2021/09/16 07:24:36;;;;;;;9.00;8.10;;;18.00;99.90;;;;;;5076702;28;20455;-71
2021/09/16 07:27:03;;;;;;;9.70;8.70;;;18.00;99.90;;;;;;5076648;28;20463;-71
2021/09/16 07:29:30;;;;;;;10.50;9.00;;;18.10;99.90;;;;;;5076286;28;20470;-71
2021/09/16 07:31:57;;;;;;;8.73;7.87;;;18.10;99.90;;;;;;5076229;28;20490;-71
2021/09/16 07:34:27;;;;;;;9.33;7.90;;;18.10;99.90;;;;;;5076470;28;20457;-71
2021/09/16 07:36:53;;;;;;;8.30;7.40;;;18.20;99.90;;;;;;5075809;28;20458;-72
2021/09/16 07:39:21;;;;;;;9.97;7.53;;;18.20;99.90;;;;;;5076150;28;20485;-71
2021/09/16 07:41:49;;;;;;;8.20;7.40;;;18.20;99.90;;;;;;5075970;28;20459;-72
2021/09/16 07:44:17;;;;;;;9.50;7.23;;;18.30;99.90;;;;;;5075663;28;20455;-72
2021/09/16 07:46:44;;;;;;;8.13;6.20;;;18.30;99.90;;;;;;5075854;28;20462;-72
2021/09/16 07:49:10;;;;;;;8.73;5.87;;;18.40;99.90;;;;;;5075769;28;20898;-73
2021/09/16 07:51:37;;;;;;;7.83;6.10;;;18.40;99.90;;;;;;5075816;28;20486;-72
2021/09/16 07:54:04;;;;;;;9.63;6.20;;;18.40;99.90;;;;;;5075874;28;20468;-72
2021/09/16 07:56:33;;;;;;;7.73;5.77;;;18.40;99.90;;;;;;5075867;28;20462;-72
2021/09/16 07:59:01;;;;;;;5.43;4.90;;;18.40;99.90;;;;;;5074802;28;20483;-72
2021/09/16 08:01:27;;;;;;;7.23;4.90;;;18.50;99.90;;;;;;5075813;28;20454;-70
2021/09/16 08:03:54;;;;;;;6.20;5.30;;;18.40;99.90;;;;;;5075881;28;20457;-71
2021/09/16 08:06:21;;;;;;;5.63;5.13;;;18.40;99.90;;;;;;5075778;28;20482;-71
2021/09/16 08:08:47;;;;;;;5.67;4.80;;;18.50;99.90;;;;;;5075665;28;20561;-72
2021/09/16 08:11:14;;;;;;;6.53;4.50;;;18.60;99.90;;;;;;5075730;28;20489;-71
2021/09/16 08:13:41;;;;;;;9.30;4.70;;;18.60;99.90;;;;;;5075482;28;20462;-71
2021/09/16 08:16:09;;;;;;;9.07;4.73;;;18.60;99.90;;;;;;5075574;28;20494;-71
2021/09/16 08:18:36;;;;;;;6.80;4.90;;;18.60;99.90;;;;;;5075438;28;20457;-71
2021/09/16 08:21:03;;;;;;;4.70;4.20;;;18.60;99.90;;;;;;5075690;28;20470;-71
2021/09/16 08:23:32;;;;;;;5.23;4.13;;;18.60;99.90;;;;;;5075506;28;20554;-72
2021/09/16 08:25:59;;;;;;;5.50;3.83;;;18.50;99.90;;;;;;5075451;28;20474;-71
2021/09/16 08:28:26;;;;;;;4.50;3.93;;;18.60;99.90;;;;;;5075226;28;20458;-71
2021/09/16 08:30:53;;;;;;;5.73;2.80;;;18.60;99.90;;;;;;5075377;28;20462;-71
2021/09/16 08:33:22;;;;;;;3.27;2.70;;;18.60;99.90;;;;;;5075095;28;20884;-71
2021/09/16 08:35:52;;;;;;;2.83;2.60;;;18.60;99.90;;;;;;5075018;28;20760;-72
2021/09/16 08:38:19;;;;;;;3.20;2.90;;;18.60;99.90;;;;;;5075485;28;20935;-71
2021/09/16 08:40:45;;;;;;;3.30;2.90;;;18.60;99.90;;;;;;5074972;28;20469;-72
2021/09/16 08:43:13;;;;;;;3.90;2.50;;;18.60;99.90;;;;;;5075288;28;20458;-71
2021/09/16 08:45:44;;;;;;;3.30;2.40;;;18.70;99.90;;;;;;5074829;28;20922;-71
2021/09/16 08:48:13;;;;;;;3.30;2.37;;;18.70;99.90;;;;;;5074830;28;20543;-71
2021/09/16 08:50:42;;;;;;;4.73;2.43;;;18.70;99.90;;;;;;5075078;28;20459;-72
2021/09/16 08:53:09;;;;;;;2.40;2.20;;;18.60;99.90;;;;;;5074706;28;20481;-71
2021/09/16 08:55:36;;;;;;;3.57;2.10;;;18.60;99.90;;;;;;5075236;28;20464;-71
2021/09/16 08:58:09;;;;;;;3.30;2.20;;;18.70;99.90;;;;;;5074980;28;20511;-71
2021/09/16 09:00:36;;;;;;;5.40;2.07;;;18.80;99.90;;;;;;5074945;28;20447;-71
2021/09/16 09:03:04;;;;;;;3.20;2.10;;;18.90;99.90;;;;;;5075182;28;20466;-72
2021/09/16 09:05:31;;;;;;;2.93;1.73;;;19.00;99.90;;;;;;5074265;28;20552;-72
2021/09/16 09:08:01;;;;;;;3.80;1.93;;;18.90;99.90;;;;;;5075113;28;20454;-72
2021/09/16 09:10:45;;;;;;;3.07;1.77;;;18.80;99.90;;;;;;5076303;28;20463;-72
2021/09/16 09:13:14;;;;;;;2.27;2.07;;;18.80;99.90;;;;;;5075204;28;20490;-72
2021/09/16 09:15:42;;;;;;;2.07;1.83;;;18.70;99.90;;;;;;5074322;28;20479;-72
2021/09/16 09:18:11;;;;;;;2.07;1.73;;;18.70;99.90;;;;;;5074855;28;20455;-72
2021/09/16 09:20:58;;;;;;;2.83;2.00;;;18.70;99.90;;;;;;5074931;28;20473;-72
2021/09/16 09:23:29;;;;;;;1.73;1.63;;;18.70;99.90;;;;;;5076260;28;20433;-72
2021/09/16 09:25:57;;;;;;;2.27;1.30;;;18.70;99.90;;;;;;5076056;28;20438;-71
2021/09/16 09:28:33;;;;;;;2.67;1.50;;;18.70;99.90;;;;;;5076152;28;20662;-72
2021/09/16 09:31:06;;;;;;;3.20;1.60;;;18.70;99.90;;;;;;5075052;28;20463;-72
2021/09/16 09:33:34;;;;;;;2.53;1.40;;;18.70;99.90;;;;;;5077573;28;20491;-72
2021/09/16 09:36:09;;;;;;;3.10;1.60;;;18.60;99.90;;;;;;5076001;28;20462;-72
2021/09/16 09:38:54;;;;;;;2.33;1.70;;;18.60;99.90;;;;;;5076305;28;20919;-72
2021/09/16 09:41:32;;;;;;;2.23;2.03;;;18.50;99.90;;;;;;5077610;28;20440;-72
2021/09/16 09:44:06;;;;;;;3.20;1.90;;;18.40;99.90;;;;;;5076097;28;20899;-72
2021/09/16 09:46:39;;;;;;;1.70;1.33;;;18.40;99.90;;;;;;5077394;28;20449;-72
2021/09/16 09:49:08;;;;;;;2.37;1.23;;;18.30;99.90;;;;;;5077263;28;20450;-72
2021/09/16 09:51:38;;;;;;;3.20;1.40;;;18.30;99.90;;;;;;5077082;28;20918;-72
2021/09/16 09:54:21;;;;;;;2.17;1.20;;;18.30;99.90;;;;;;5077261;28;20910;-72
2021/09/16 09:57:06;;;;;;;2.07;1.53;;;18.30;99.90;;;;;;5075589;28;20446;-72
2021/09/16 10:00:01;;;;;;;4.53;1.10;;;18.40;99.90;;;;;;5074832;28;20447;-72
2021/09/16 10:02:30;;;;;;;2.47;1.00;;;18.50;99.90;;;;;;5074285;28;20837;-72
2021/09/16 10:04:58;;;;;;;3.10;1.30;;;18.50;99.90;;;;;;5074432;28;20466;-73
2021/09/16 10:07:34;;;;;;;2.70;1.00;;;18.50;99.90;;;;;;5074314;28;20509;-73
2021/09/16 10:10:05;;;;;;;4.73;1.70;;;18.50;99.90;;;;;;5073729;28;20881;-72
2021/09/16 10:12:32;;;;;;;1.97;0.90;;;18.50;99.90;;;;;;5073846;28;20466;-74
2021/09/16 10:14:59;;;;;;;1.27;0.80;;;18.60;99.90;;;;;;5073497;28;20483;-73
2021/09/16 10:17:26;;;;;;;2.30;0.97;;;18.60;99.90;;;;;;5073915;28;20806;-73
2021/09/16 10:19:55;;;;;;;1.50;0.90;;;18.70;99.90;;;;;;5074210;28;20459;-73
2021/09/16 10:22:23;;;;;;;1.50;0.90;;;18.80;99.90;;;;;;5075340;28;20907;-72
2021/09/16 10:24:52;;;;;;;1.30;1.00;;;18.80;99.90;;;;;;5077335;28;20455;-72
2021/09/16 10:27:32;;;;;;;2.30;0.90;;;18.90;99.90;;;;;;5077399;28;20468;-71
2021/09/16 10:30:00;;;;;;;2.30;0.90;;;18.90;99.90;;;;;;5077152;28;20511;-72
2021/09/16 10:32:40;;;;;;;3.00;1.00;;;18.90;99.90;;;;;;5076983;28;20539;-72
2021/09/16 10:35:19;;;;;;;1.40;1.00;;;18.80;99.90;;;;;;5077141;28;20461;-72
2021/09/16 10:37:46;;;;;;;1.67;1.20;;;18.80;99.90;;;;;;5076913;28;20926;-72
2021/09/16 10:40:25;;;;;;;2.63;1.00;;;18.80;99.90;;;;;;5077478;28;20460;-73
2021/09/16 10:42:57;;;;;;;2.17;1.03;;;18.70;99.90;;;;;;5076892;28;20446;-72
2021/09/16 10:45:33;;;;;;;2.03;0.90;;;18.60;99.90;;;;;;5077673;28;20444;-72
2021/09/16 10:48:29;;;;;;;1.50;0.90;;;18.60;99.90;;;;;;5076824;28;20484;-72
2021/09/16 10:51:01;;;;;;;1.60;0.80;;;18.70;99.90;;;;;;5076823;28;20857;-72
2021/09/16 10:53:34;;;;;;;1.17;0.73;;;18.70;99.90;;;;;;5077725;28;20478;-72
2021/09/16 10:56:04;;;;;;;1.40;0.80;;;18.50;99.90;;;;;;5077118;28;20454;-73
2021/09/16 10:58:33;;;;;;;1.40;1.00;;;18.40;99.90;;;;;;5077103;28;20566;-72
2021/09/16 11:00:59;;;;;;;1.93;1.00;;;18.40;99.90;;;;;;5077090;28;20771;-72
2021/09/16 11:03:26;;;;;;;2.17;1.10;;;18.40;99.90;;;;;;5076998;28;20515;-72
2021/09/16 11:05:55;;;;;;;2.90;0.93;;;18.40;99.90;;;;;;5076925;28;20471;-72
2021/09/16 11:08:43;;;;;;;2.13;1.13;;;18.40;99.90;;;;;;5076864;28;20469;-73
2021/09/16 11:11:13;;;;;;;2.73;1.00;;;18.40;99.90;;;;;;5076207;28;20455;-72
2021/09/16 11:13:53;;;;;;;3.00;0.97;;;18.30;99.90;;;;;;5076593;28;20480;-73
2021/09/16 11:16:27;;;;;;;2.43;1.00;;;18.20;99.90;;;;;;5076631;28;20482;-72
2021/09/16 11:19:02;;;;;;;1.40;1.00;;;18.20;99.90;;;;;;5076627;28;20774;-72
2021/09/16 11:21:29;;;;;;;2.23;0.90;;;18.20;99.90;;;;;;5076533;28;20461;-72
2021/09/16 11:23:56;;;;;;;3.47;0.70;;;18.20;99.90;;;;;;5076284;28;20833;-72
2021/09/16 11:26:27;;;;;;;1.17;0.80;;;18.10;99.90;;;;;;5076535;28;20807;-71
2021/09/16 11:28:58;;;;;;;1.93;1.67;;;18.20;99.90;;;;;;5076192;28;20923;-70
2021/09/16 11:31:25;;;;;;;2.70;0.87;;;18.20;99.90;;;;;;5076648;28;20467;-73
2021/09/16 11:34:15;;;;;;;1.57;0.73;;;18.20;99.90;;;;;;5076710;28;20478;-72
2021/09/16 11:37:04;;;;;;;1.20;0.60;;;18.20;99.90;;;;;;5075977;28;20974;-71
2021/09/16 11:39:30;;;;;;;2.63;0.90;;;18.30;99.90;;;;;;5076352;28;20485;-73
2021/09/16 11:42:13;;;;;;;3.57;0.87;;;18.30;99.90;;;;;;5075870;28;20460;-73
2021/09/16 11:45:01;;;;;;;1.30;0.90;;;18.20;99.90;;;;;;5075931;28;20466;-72
2021/09/16 11:47:29;;;;;;;7.53;0.80;;;18.20;99.90;;;;;;5076270;28;20439;-72
2021/09/16 11:49:58;;;;;;;1.80;0.80;;;18.20;99.90;;;;;;5076128;28;20470;-73
2021/09/16 11:52:24;;;;;;;2.40;0.70;;;18.20;99.90;;;;;;5075778;28;20474;-71
2021/09/16 11:55:11;;;;;;;2.70;1.30;;;18.20;99.90;;;;;;5075899;28;20458;-72
2021/09/16 11:58:08;;;;;;;1.10;0.80;;;18.30;99.90;;;;;;5076145;28;20458;-73
2021/09/16 12:00:38;;;;;;;1.40;0.70;;;18.30;99.90;;;;;;5075655;28;20835;-70
2021/09/16 12:03:07;;;;;;;7.03;1.00;;;18.40;99.90;;;;;;5076295;28;20431;-72
2021/09/16 12:05:38;;;;;;;1.43;0.80;;;18.50;99.90;;;;;;5075088;28;20457;-72
2021/09/16 12:08:07;;;;;;;2.40;0.80;;;18.70;99.90;;;;;;5075861;28;20447;-72
2021/09/16 12:10:44;;;;;;;2.90;0.90;;;18.90;99.90;;;;;;5075364;28;20811;-72
2021/09/16 12:13:15;;;;;;;1.80;1.00;;;19.10;99.90;;;;;;5075559;28;20466;-72
2021/09/16 12:15:42;;;;;;;1.57;0.60;;;19.40;99.90;;;;;;5075011;28;20571;-72
2021/09/16 12:18:12;;;;;;;2.63;0.80;;;19.60;99.90;;;;;;5075415;28;20458;-72
2021/09/16 12:20:41;;;;;;;3.30;0.83;;;19.80;99.90;;;;;;5075359;28;20463;-73
2021/09/16 12:23:11;;;;;;;1.10;0.80;;;20.00;99.90;;;;;;5075168;28;20451;-72
2021/09/16 12:25:57;;;;;;;2.80;0.90;;;20.20;99.90;;;;;;5075339;28;20506;-72
2021/09/16 12:28:26;;;;;;;1.93;0.90;;;20.20;99.90;;;;;;5075387;28;20443;-72
2021/09/16 12:30:54;;;;;;;2.03;0.80;;;20.00;99.90;;;;;;5075637;28;20434;-71
2021/09/16 12:33:42;;;;;;;1.70;0.70;;;19.70;99.90;;;;;;5075555;28;20483;-73
2021/09/16 12:36:20;;;;;;;1.83;0.80;;;19.50;99.90;;;;;;5070103;28;20466;-73
2021/09/16 12:38:49;;;;;;;1.20;0.70;;;19.20;99.90;;;;;;5074801;28;20511;-72
2021/09/16 12:41:27;;;;;;;1.27;0.80;;;19.00;99.90;;;;;;5075398;28;20462;-72
2021/09/16 12:43:57;;;;;;;1.50;0.80;;;19.00;99.90;;;;;;5074853;28;20814;-73
2021/09/16 12:46:24;;;;;;;1.47;0.70;;;19.00;99.90;;;;;;5074776;28;20799;-72